Deal, New Jersey
Current Conditions -  °F | °C
As of 9:35 AM on Saturday 20 Dec 2014 (Local Time) from KBLM Reporting Station
Overcast Overcast  
Wind Chill: -3°   Ceiling: 2600
Heat Index:   Visibility: 10mi
Dew Point: -8°   Wind: 6mph
Humidity: 55%   Direction: 290°WNW
Pressure: 30.3"   Gusts: NA
Location:  40.24°N, 74°W
Report Text: KBLM 201435Z AUTO 29005KT 10SM OVC026 00/M08 A3030 RMK AO1
Loading
Personal Weather Stations






























Interactive Weather Map New forecast layout! Learn more

10-Day Weather Forecast

Advertisements
Track Severe Weather on mobile